Time;durP1;ratioP1;P1;durP2;ratioP2;P2;SDS_P1;SDS_P2;PMS_P1;PMS_P2;Temp;Humidity;BMP_temperature;BMP_pressure;BME280_temperature;BME280_humidity;BME280_pressure;Samples;Min_cycle;Max_cycle;Signal;HPM_P1;HPM_P2
2022/03/13 00:00:10;;;;;;;0.95;0.70;;;10.10;64.80;;;;;;5114197;28;20385;-74
2022/03/13 00:02:36;;;;;;;1.42;0.70;;;10.10;64.80;;;;;;5113676;28;20370;-73
2022/03/13 00:05:03;;;;;;;1.42;0.80;;;10.10;64.80;;;;;;5095252;28;20036;-73
2022/03/13 00:07:29;;;;;;;1.08;0.73;;;10.10;64.80;;;;;;5095055;28;20497;-73
2022/03/13 00:09:55;;;;;;;1.00;0.80;;;10.10;64.90;;;;;;5095880;28;20039;-73
2022/03/13 00:15:09;;;;;;;1.33;0.88;;;10.00;64.80;;;;;;5097379;28;20478;-73
2022/03/13 00:17:35;;;;;;;1.27;0.80;;;10.10;65.50;;;;;;5094929;28;20050;-73
2022/03/13 00:20:04;;;;;;;1.52;0.82;;;10.10;64.90;;;;;;5095212;28;20044;-73
2022/03/13 00:22:31;;;;;;;1.15;0.60;;;10.10;64.90;;;;;;5061464;28;20560;-73
2022/03/13 00:25:00;;;;;;;1.27;0.70;;;10.10;64.90;;;;;;5113304;28;20055;-73
2022/03/13 00:27:31;;;;;;;1.10;0.65;;;10.10;64.90;;;;;;5113886;28;20067;-73
2022/03/13 00:29:58;;;;;;;0.73;0.60;;;10.10;64.90;;;;;;5113501;28;20098;-73
2022/03/13 00:32:24;;;;;;;2.05;0.80;;;10.10;64.90;;;;;;5112986;28;20042;-73
2022/03/13 00:34:50;;;;;;;1.90;0.80;;;10.00;64.90;;;;;;5112972;28;20043;-73
2022/03/13 00:37:17;;;;;;;1.15;0.90;;;10.00;64.90;;;;;;5112927;28;20048;-73
2022/03/13 00:39:44;;;;;;;1.50;1.00;;;10.00;65.00;;;;;;5094917;28;20085;-73
2022/03/13 00:42:13;;;;;;;2.08;0.98;;;10.00;65.00;;;;;;5111722;28;20039;-73
2022/03/13 00:44:39;;;;;;;1.58;1.10;;;10.10;64.90;;;;;;5113490;28;20065;-73
2022/03/13 00:47:06;;;;;;;2.10;1.30;;;10.10;64.80;;;;;;5112122;28;20513;-73
2022/03/13 00:49:32;;;;;;;1.77;1.05;;;10.20;64.70;;;;;;5094719;28;20558;-74
2022/03/13 00:52:00;;;;;;;1.65;1.00;;;10.20;64.60;;;;;;5113163;28;20043;-73
2022/03/13 00:54:27;;;;;;;2.20;1.13;;;10.30;64.50;;;;;;5094984;28;20063;-73
2022/03/13 00:56:54;;;;;;;1.30;0.90;;;10.40;64.30;;;;;;5077772;28;20405;-73
2022/03/13 00:59:21;;;;;;;1.58;0.93;;;10.40;64.30;;;;;;5094591;28;20093;-73
2022/03/13 01:01:47;;;;;;;1.30;0.80;;;10.40;64.30;;;;;;5112998;28;20039;-73
2022/03/13 01:04:13;;;;;;;1.25;0.82;;;10.40;64.30;;;;;;5112680;28;20083;-73
2022/03/13 01:06:40;;;;;;;1.40;0.80;;;10.40;64.30;;;;;;5094269;28;20100;-73
2022/03/13 01:09:06;;;;;;;0.85;0.70;;;10.40;64.40;;;;;;5094067;28;20315;-73
2022/03/13 01:11:32;;;;;;;1.83;0.80;;;10.30;64.30;;;;;;5112694;28;20118;-73
2022/03/13 01:13:57;;;;;;;1.17;0.90;;;10.40;64.50;;;;;;5094209;28;20066;-73
2022/03/13 01:16:27;;;;;;;1.92;0.73;;;10.30;64.50;;;;;;5112553;28;20046;-73
2022/03/13 01:18:58;;;;;;;1.38;0.80;;;10.30;64.60;;;;;;5112261;28;20062;-73
2022/03/13 01:21:25;;;;;;;0.70;0.60;;;10.30;64.70;;;;;;5094614;28;20118;-73
2022/03/13 01:24:23;;;;;;;1.33;0.75;;;10.30;64.80;;;;;;5112029;28;20452;-73
2022/03/13 01:27:02;;;;;;;1.23;0.57;;;10.20;64.90;;;;;;5112313;28;20093;-73
2022/03/13 01:29:30;;;;;;;1.35;0.80;;;10.20;65.00;;;;;;5112395;28;20127;-73
2022/03/13 01:31:57;;;;;;;0.68;0.60;;;10.20;65.00;;;;;;5094183;28;20039;-73
2022/03/13 01:34:39;;;;;;;1.02;0.70;;;10.20;65.10;;;;;;5112291;28;20126;-73
2022/03/13 01:37:08;;;;;;;1.17;0.85;;;10.20;65.10;;;;;;5112450;28;20044;-74
2022/03/13 01:39:34;;;;;;;1.67;0.80;;;10.10;65.10;;;;;;5112421;28;20092;-73
2022/03/13 01:42:00;;;;;;;1.35;0.75;;;10.10;65.20;;;;;;5112274;28;20148;-73
2022/03/13 01:44:26;;;;;;;1.73;1.00;;;10.10;65.30;;;;;;5112191;28;20047;-73
2022/03/13 01:46:52;;;;;;;1.67;1.10;;;10.00;65.30;;;;;;5112728;28;20039;-73
2022/03/13 01:49:18;;;;;;;1.42;0.95;;;10.00;65.40;;;;;;5112119;28;20088;-72
2022/03/13 01:51:44;;;;;;;1.80;0.95;;;10.10;65.50;;;;;;5112040;28;20040;-73
2022/03/13 01:54:12;;;;;;;1.13;0.90;;;10.00;65.50;;;;;;5112271;28;20059;-73
2022/03/13 01:56:38;;;;;;;1.20;0.80;;;9.90;65.50;;;;;;5111870;28;20437;-73
2022/03/13 01:59:06;;;;;;;1.10;0.95;;;9.90;65.50;;;;;;5114298;28;20043;-73
2022/03/13 02:01:32;;;;;;;1.83;1.10;;;9.90;65.60;;;;;;5115566;28;20059;-73
2022/03/13 02:03:58;;;;;;;1.38;0.90;;;9.90;65.60;;;;;;5097201;28;20088;-73
2022/03/13 02:06:24;;;;;;;2.10;1.15;;;9.80;65.70;;;;;;5097107;28;20031;-73
2022/03/13 02:08:50;;;;;;;1.65;1.10;;;9.80;65.80;;;;;;5097212;28;20031;-72
2022/03/13 02:11:19;;;;;;;1.67;1.10;;;9.70;65.80;;;;;;5115252;28;20081;-73
2022/03/13 02:13:48;;;;;;;2.53;1.10;;;9.70;66.00;;;;;;5115174;28;20031;-73
2022/03/13 02:16:14;;;;;;;2.25;1.10;;;9.60;66.00;;;;;;5080232;28;20134;-73
2022/03/13 02:18:41;;;;;;;1.70;1.00;;;9.60;66.20;;;;;;5115083;28;20031;-73
2022/03/13 02:21:08;;;;;;;1.73;1.08;;;9.50;66.20;;;;;;5115563;28;20039;-74
2022/03/13 02:23:36;;;;;;;1.70;1.00;;;9.40;66.20;;;;;;5097007;28;20131;-73
2022/03/13 02:26:05;;;;;;;2.65;1.27;;;9.40;66.30;;;;;;5115213;28;20114;-73
2022/03/13 02:28:33;;;;;;;0.90;0.82;;;9.40;66.40;;;;;;5097298;28;20108;-73
2022/03/13 02:31:01;;;;;;;1.38;0.90;;;9.30;66.50;;;;;;5115417;28;20447;-73
2022/03/13 02:33:27;;;;;;;1.85;1.20;;;9.30;66.60;;;;;;5115314;28;20450;-73
2022/03/13 02:35:56;;;;;;;2.83;1.45;;;9.30;66.70;;;;;;5114987;28;20082;-73
2022/03/13 02:38:23;;;;;;;3.72;1.58;;;9.20;66.70;;;;;;5095464;28;20040;-72
2022/03/13 02:40:49;;;;;;;2.08;1.20;;;9.10;66.80;;;;;;5115344;28;20071;-73
2022/03/13 02:43:16;;;;;;;2.85;1.50;;;9.10;66.80;;;;;;5115312;28;20090;-73
2022/03/13 02:45:42;;;;;;;3.05;1.70;;;9.10;66.90;;;;;;5115102;28;20046;-73
2022/03/13 02:48:09;;;;;;;2.05;1.23;;;9.00;66.90;;;;;;5079932;28;20388;-74
2022/03/13 02:50:36;;;;;;;1.85;1.20;;;9.00;66.90;;;;;;5114797;28;20054;-74
2022/03/13 02:53:03;;;;;;;2.75;1.50;;;9.00;67.00;;;;;;5096675;28;20482;-73
2022/03/13 02:55:29;;;;;;;2.97;1.40;;;8.90;67.00;;;;;;5114678;28;20059;-73
2022/03/13 02:57:55;;;;;;;2.10;1.33;;;8.90;67.00;;;;;;5114792;28;20054;-73
2022/03/13 03:00:38;;;;;;;2.40;1.52;;;8.80;67.00;;;;;;5096325;28;20054;-73
2022/03/13 03:03:04;;;;;;;2.72;1.42;;;8.80;67.10;;;;;;5099124;28;20046;-73
2022/03/13 03:05:31;;;;;;;2.58;1.20;;;8.80;67.20;;;;;;5115215;28;20405;-72
2022/03/13 03:07:57;;;;;;;1.60;1.10;;;8.70;67.20;;;;;;5115005;28;20111;-73
2022/03/13 03:10:23;;;;;;;1.90;1.30;;;8.70;67.30;;;;;;5113486;28;20078;-72
2022/03/13 03:12:48;;;;;;;1.67;1.00;;;8.70;67.40;;;;;;5096777;28;20054;-72
2022/03/13 03:15:17;;;;;;;1.92;1.15;;;8.70;67.40;;;;;;5095986;28;20167;-73
2022/03/13 03:17:43;;;;;;;2.10;1.23;;;8.60;67.40;;;;;;5114942;28;20042;-73
2022/03/13 03:20:11;;;;;;;2.45;1.40;;;8.60;67.40;;;;;;5114149;28;20126;-73
2022/03/13 03:22:38;;;;;;;2.05;1.33;;;8.60;67.40;;;;;;5096302;28;20081;-73
2022/03/13 03:25:05;;;;;;;2.28;1.25;;;8.60;67.40;;;;;;5114154;28;20126;-73
2022/03/13 03:27:31;;;;;;;2.13;1.30;;;8.60;67.40;;;;;;5114269;28;20044;-74
2022/03/13 03:29:59;;;;;;;1.55;1.17;;;8.60;67.40;;;;;;5114627;28;20040;-73
2022/03/13 03:32:24;;;;;;;1.15;0.90;;;8.60;67.40;;;;;;5114684;28;20568;-73
2022/03/13 03:34:50;;;;;;;2.03;1.35;;;8.50;67.40;;;;;;5114595;28;20126;-75
2022/03/13 03:37:16;;;;;;;2.35;1.20;;;8.50;67.40;;;;;;5114628;28;20063;-73
2022/03/13 03:39:42;;;;;;;2.60;1.50;;;8.50;68.20;;;;;;5114321;28;20040;-73
2022/03/13 03:42:08;;;;;;;1.77;1.13;;;8.40;67.50;;;;;;5114302;28;20044;-73
2022/03/13 03:44:33;;;;;;;1.80;1.27;;;8.40;67.50;;;;;;5095638;28;20085;-73
2022/03/13 03:46:59;;;;;;;1.50;0.98;;;8.40;67.50;;;;;;5095764;28;20050;-74
2022/03/13 03:49:25;;;;;;;2.03;1.23;;;8.40;67.50;;;;;;5114035;28;20043;-73
2022/03/13 03:51:52;;;;;;;1.58;1.00;;;8.40;67.50;;;;;;5113991;28;20488;-73
2022/03/13 03:54:18;;;;;;;1.70;1.20;;;8.40;67.50;;;;;;5113997;28;20036;-73
2022/03/13 03:56:44;;;;;;;2.60;1.45;;;8.40;67.50;;;;;;5078904;28;20055;-74
2022/03/13 03:59:10;;;;;;;2.05;1.27;;;8.40;67.50;;;;;;5113602;28;20035;-73
2022/03/13 04:01:38;;;;;;;1.80;1.20;;;8.40;67.50;;;;;;5113592;28;20036;-73
2022/03/13 04:04:06;;;;;;;1.88;1.20;;;8.40;67.40;;;;;;5113588;28;20508;-73
2022/03/13 04:06:33;;;;;;;1.80;1.20;;;8.40;67.40;;;;;;5114081;28;20040;-73
2022/03/13 04:09:00;;;;;;;2.35;1.23;;;8.40;67.40;;;;;;5113501;28;20114;-73
2022/03/13 04:11:25;;;;;;;2.15;1.27;;;8.40;67.30;;;;;;5095082;28;20027;-73
2022/03/13 04:13:51;;;;;;;2.28;1.15;;;8.40;67.30;;;;;;5113597;28;20100;-73
2022/03/13 04:16:17;;;;;;;2.22;1.15;;;8.40;67.30;;;;;;5113333;28;20122;-73
2022/03/13 04:18:43;;;;;;;2.13;1.20;;;8.40;67.20;;;;;;5113159;28;20039;-73
2022/03/13 04:21:08;;;;;;;1.52;0.93;;;8.40;67.20;;;;;;5113131;28;20486;-73
2022/03/13 04:23:35;;;;;;;2.33;1.30;;;8.40;67.20;;;;;;5113156;28;20040;-73
2022/03/13 04:26:03;;;;;;;1.50;1.00;;;8.40;67.10;;;;;;5111353;28;20063;-73
2022/03/13 04:28:29;;;;;;;1.95;1.00;;;8.40;67.10;;;;;;5113176;28;20039;-73
2022/03/13 04:30:57;;;;;;;1.73;1.10;;;8.40;67.10;;;;;;5077997;28;20436;-73
2022/03/13 04:33:24;;;;;;;2.38;1.30;;;8.40;67.10;;;;;;5095101;28;20096;-74
2022/03/13 04:35:49;;;;;;;2.78;1.40;;;8.40;67.10;;;;;;5094903;28;20051;-73
2022/03/13 04:38:16;;;;;;;1.95;1.20;;;8.40;67.10;;;;;;5094743;28;20043;-73
2022/03/13 04:40:41;;;;;;;1.85;1.10;;;8.40;67.10;;;;;;5113012;28;20177;-73
2022/03/13 04:43:08;;;;;;;1.65;1.10;;;8.40;67.00;;;;;;5113397;28;20085;-73
2022/03/13 04:45:34;;;;;;;1.50;1.08;;;8.50;67.10;;;;;;5113328;28;20118;-73
2022/03/13 04:48:00;;;;;;;2.17;1.02;;;8.40;67.10;;;;;;5113003;28;20046;-73
2022/03/13 04:50:26;;;;;;;2.30;1.20;;;8.40;67.00;;;;;;5113337;28;20047;-73
2022/03/13 04:52:52;;;;;;;2.15;1.00;;;8.40;67.10;;;;;;5113032;28;20043;-73
2022/03/13 04:55:18;;;;;;;1.80;1.00;;;8.40;67.00;;;;;;5077683;28;20043;-73
2022/03/13 04:57:43;;;;;;;2.05;1.17;;;8.40;67.00;;;;;;5112734;28;20497;-73
2022/03/13 05:00:09;;;;;;;1.98;0.90;;;8.40;67.00;;;;;;5112961;28;20039;-73
2022/03/13 05:02:36;;;;;;;2.80;1.33;;;8.40;67.00;;;;;;5112832;28;20036;-73
2022/03/13 05:05:02;;;;;;;2.35;1.02;;;8.40;66.90;;;;;;5094416;28;20130;-73
2022/03/13 05:07:28;;;;;;;1.17;0.80;;;8.40;66.90;;;;;;5094721;28;20055;-74
2022/03/13 05:09:54;;;;;;;2.22;1.10;;;8.40;67.00;;;;;;5112883;28;20092;-73
2022/03/13 05:12:23;;;;;;;1.52;0.88;;;8.30;66.90;;;;;;5112774;28;20039;-73
2022/03/13 05:14:50;;;;;;;2.50;1.20;;;8.30;66.90;;;;;;5095347;28;20105;-73
2022/03/13 05:17:16;;;;;;;2.22;0.82;;;8.40;67.00;;;;;;5112748;28;20059;-73
2022/03/13 05:19:42;;;;;;;1.35;0.80;;;8.30;66.90;;;;;;5112483;28;20401;-73
2022/03/13 05:22:07;;;;;;;1.20;0.80;;;8.30;66.80;;;;;;5094335;28;20092;-73
2022/03/13 05:24:33;;;;;;;1.80;0.88;;;8.30;66.80;;;;;;5094518;28;20122;-73
2022/03/13 05:26:59;;;;;;;2.13;1.25;;;8.30;66.80;;;;;;5112967;28;20035;-73
2022/03/13 05:29:24;;;;;;;1.13;0.70;;;8.40;66.80;;;;;;5112582;28;20127;-73
2022/03/13 05:31:50;;;;;;;0.85;0.80;;;8.40;66.70;;;;;;5094738;28;20119;-73
2022/03/13 05:34:16;;;;;;;1.65;0.90;;;8.30;66.60;;;;;;5115561;28;20056;-72
2022/03/13 05:36:41;;;;;;;1.65;1.00;;;8.30;66.60;;;;;;5097952;28;20043;-72
2022/03/13 05:39:09;;;;;;;1.27;0.90;;;8.30;66.50;;;;;;5115840;28;20044;-73
2022/03/13 05:41:40;;;;;;;1.10;0.70;;;8.30;66.50;;;;;;5116518;28;20035;-73
2022/03/13 05:44:09;;;;;;;1.85;0.90;;;8.30;66.40;;;;;;5097807;28;20131;-73
2022/03/13 05:46:36;;;;;;;1.35;0.82;;;8.40;66.40;;;;;;5116555;28;20052;-73
2022/03/13 05:49:03;;;;;;;1.10;0.90;;;8.40;66.30;;;;;;5115903;28;20070;-73
2022/03/13 05:51:31;;;;;;;1.40;0.85;;;8.40;66.20;;;;;;5116025;28;20138;-73
2022/03/13 05:53:56;;;;;;;1.40;0.80;;;8.40;66.20;;;;;;5098275;28;20039;-73
2022/03/13 05:56:22;;;;;;;1.88;1.00;;;8.30;66.10;;;;;;5116146;28;20127;-73
2022/03/13 05:58:48;;;;;;;1.80;1.00;;;8.40;66.10;;;;;;5097386;28;20063;-73
2022/03/13 06:01:13;;;;;;;0.80;0.60;;;8.40;66.00;;;;;;5115768;28;20441;-73
2022/03/13 06:03:39;;;;;;;2.13;1.10;;;8.40;66.00;;;;;;5116159;28;20067;-73
2022/03/13 06:06:05;;;;;;;1.30;0.90;;;8.30;65.90;;;;;;5115655;28;20070;-72
2022/03/13 06:08:31;;;;;;;1.40;0.90;;;8.30;65.90;;;;;;5115620;28;20513;-73
2022/03/13 06:10:57;;;;;;;1.38;0.80;;;8.30;65.80;;;;;;5115507;28;20497;-73
2022/03/13 06:13:24;;;;;;;0.80;0.70;;;8.30;65.90;;;;;;5115558;28;20056;-73
2022/03/13 06:15:50;;;;;;;1.30;0.70;;;8.30;65.80;;;;;;5115601;28;20054;-73
2022/03/13 06:18:16;;;;;;;1.05;0.80;;;8.30;65.80;;;;;;5080415;28;20044;-73
2022/03/13 06:20:41;;;;;;;1.17;0.70;;;8.40;65.90;;;;;;5115259;28;20031;-73
2022/03/13 06:23:09;;;;;;;1.23;0.88;;;8.30;65.80;;;;;;5115404;28;20069;-73
2022/03/13 06:25:35;;;;;;;1.02;0.73;;;8.30;65.80;;;;;;5115354;28;20110;-73
2022/03/13 06:28:01;;;;;;;0.98;0.70;;;8.30;65.80;;;;;;5115683;28;20061;-73
2022/03/13 06:30:28;;;;;;;1.77;1.10;;;8.30;65.70;;;;;;5097225;28;20043;-73
2022/03/13 06:32:55;;;;;;;1.60;0.80;;;8.30;65.60;;;;;;5115776;28;20042;-73
2022/03/13 06:35:22;;;;;;;1.40;0.80;;;8.30;65.60;;;;;;5097041;28;20472;-73
2022/03/13 06:37:49;;;;;;;1.42;0.90;;;8.40;65.60;;;;;;5115215;28;20059;-73
2022/03/13 06:40:17;;;;;;;1.90;1.13;;;8.40;65.50;;;;;;5115506;28;20051;-73
2022/03/13 06:42:44;;;;;;;1.42;0.90;;;8.30;65.40;;;;;;5080006;28;20131;-73
2022/03/13 06:45:10;;;;;;;1.30;1.08;;;8.40;65.40;;;;;;5114234;28;20081;-73
2022/03/13 06:47:37;;;;;;;1.13;0.70;;;8.40;65.30;;;;;;5115193;28;20031;-73
2022/03/13 06:50:04;;;;;;;2.22;1.20;;;8.40;65.30;;;;;;5115658;28;20540;-73
2022/03/13 06:52:29;;;;;;;1.52;0.90;;;8.40;65.20;;;;;;5115047;28;20050;-74
2022/03/13 06:54:55;;;;;;;1.52;1.10;;;8.40;65.10;;;;;;5096804;28;20044;-72
2022/03/13 06:57:21;;;;;;;1.13;0.80;;;8.40;65.00;;;;;;5115095;28;20051;-73
2022/03/13 06:59:46;;;;;;;1.55;0.82;;;8.50;65.00;;;;;;5115081;28;20051;-73
2022/03/13 07:02:13;;;;;;;1.17;0.80;;;8.40;64.80;;;;;;5115573;28;20054;-73
2022/03/13 07:04:39;;;;;;;1.63;0.90;;;8.40;64.80;;;;;;5063107;28;20039;-73
2022/03/13 07:07:05;;;;;;;1.17;0.82;;;8.50;64.80;;;;;;5096532;28;20080;-72
2022/03/13 07:09:32;;;;;;;1.95;1.05;;;8.50;65.40;;;;;;5114658;28;20501;-72
2022/03/13 07:11:57;;;;;;;2.00;0.95;;;8.50;64.70;;;;;;5115133;28;20054;-73
2022/03/13 07:14:24;;;;;;;1.27;0.88;;;8.50;64.70;;;;;;5096963;28;20039;-72
2022/03/13 07:16:50;;;;;;;1.45;0.95;;;8.40;64.60;;;;;;5114486;28;20136;-74
2022/03/13 07:19:16;;;;;;;1.02;0.80;;;8.50;64.60;;;;;;5096181;28;20126;-72
2022/03/13 07:21:42;;;;;;;1.80;1.00;;;8.50;64.60;;;;;;5079188;28;20201;-72
2022/03/13 07:24:08;;;;;;;1.27;0.88;;;8.50;64.60;;;;;;5096085;28;20208;-72
2022/03/13 07:26:33;;;;;;;1.38;0.80;;;8.40;64.50;;;;;;5114356;28;20039;-72
2022/03/13 07:29:01;;;;;;;1.35;0.90;;;8.50;64.50;;;;;;5114297;28;20032;-72
2022/03/13 07:31:29;;;;;;;1.25;0.80;;;8.50;64.30;;;;;;5114476;28;20443;-73
2022/03/13 07:33:54;;;;;;;1.30;0.80;;;8.60;64.30;;;;;;5096168;28;20051;-72
2022/03/13 07:36:20;;;;;;;2.03;1.00;;;8.60;64.10;;;;;;5096221;28;20040;-73
2022/03/13 07:38:47;;;;;;;0.70;0.70;;;8.60;64.00;;;;;;5096328;28;20040;-73
2022/03/13 07:41:13;;;;;;;0.90;0.70;;;8.70;63.90;;;;;;5114592;28;20085;-73
2022/03/13 07:43:38;;;;;;;1.13;0.70;;;8.70;63.90;;;;;;5114178;28;20036;-73
2022/03/13 07:46:05;;;;;;;1.25;0.80;;;8.70;63.80;;;;;;5114460;28;20084;-73
2022/03/13 07:48:34;;;;;;;1.17;0.80;;;8.70;63.70;;;;;;5114442;28;20043;-73
2022/03/13 07:51:00;;;;;;;1.10;0.77;;;8.80;63.60;;;;;;5079228;28;20039;-74
2022/03/13 07:53:27;;;;;;;2.00;1.23;;;8.80;63.60;;;;;;5078662;28;20512;-74
2022/03/13 07:55:54;;;;;;;1.80;1.10;;;8.80;63.50;;;;;;5095586;28;20044;-73
2022/03/13 07:58:20;;;;;;;1.73;0.85;;;8.80;64.00;;;;;;5114383;28;20079;-73
2022/03/13 08:00:46;;;;;;;2.08;1.10;;;8.80;63.20;;;;;;5095496;28;20101;-73
2022/03/13 08:03:12;;;;;;;1.30;1.02;;;8.90;63.20;;;;;;5113777;28;20473;-73
2022/03/13 08:05:38;;;;;;;2.45;0.85;;;8.90;63.10;;;;;;5114343;28;20047;-74
2022/03/13 08:08:04;;;;;;;2.25;1.23;;;8.90;62.90;;;;;;5114360;28;20369;-73
2022/03/13 08:10:30;;;;;;;1.92;1.10;;;9.00;62.90;;;;;;5078672;28;20035;-73
2022/03/13 08:12:56;;;;;;;1.58;1.10;;;9.00;62.70;;;;;;5113653;28;20047;-73
2022/03/13 08:15:22;;;;;;;2.38;1.27;;;9.00;62.60;;;;;;5113528;28;20091;-73
2022/03/13 08:17:48;;;;;;;2.10;1.10;;;9.10;62.60;;;;;;5078325;28;20119;-73
2022/03/13 08:20:14;;;;;;;1.90;1.17;;;9.10;62.40;;;;;;5113558;28;20445;-73
2022/03/13 08:22:40;;;;;;;1.83;1.05;;;9.20;62.30;;;;;;5078624;28;20054;-72
2022/03/13 08:25:08;;;;;;;2.00;1.00;;;9.20;62.20;;;;;;5095400;28;20036;-72
2022/03/13 08:27:34;;;;;;;1.98;1.10;;;9.20;62.10;;;;;;5113466;28;20031;-72
2022/03/13 08:30:01;;;;;;;1.67;1.02;;;9.30;62.10;;;;;;5113624;28;20047;-73
2022/03/13 08:32:27;;;;;;;1.52;1.00;;;9.30;62.00;;;;;;5095445;28;20047;-72
2022/03/13 08:34:53;;;;;;;1.63;1.00;;;9.40;61.90;;;;;;5095228;28;20146;-73
2022/03/13 08:37:19;;;;;;;1.85;1.00;;;9.50;61.80;;;;;;5095119;28;20135;-73
2022/03/13 08:39:45;;;;;;;1.83;1.15;;;9.60;61.60;;;;;;5113233;28;20431;-73
2022/03/13 08:42:10;;;;;;;1.67;1.08;;;9.60;61.40;;;;;;5113614;28;20042;-72
2022/03/13 08:44:36;;;;;;;1.65;0.98;;;9.60;61.20;;;;;;5113642;28;20374;-73
2022/03/13 08:47:02;;;;;;;1.85;1.20;;;9.70;61.20;;;;;;5113562;28;20481;-73
2022/03/13 08:49:29;;;;;;;1.85;0.93;;;9.70;61.10;;;;;;5113168;28;20055;-73
2022/03/13 08:51:54;;;;;;;1.30;0.90;;;9.70;61.10;;;;;;5113441;28;20118;-73
2022/03/13 08:54:20;;;;;;;1.90;1.20;;;9.80;61.10;;;;;;5112992;28;20070;-73
2022/03/13 08:56:48;;;;;;;2.75;1.33;;;9.70;61.10;;;;;;5095054;28;20081;-73
2022/03/13 08:59:15;;;;;;;1.45;0.95;;;9.80;61.00;;;;;;5094637;28;20126;-73
2022/03/13 09:01:42;;;;;;;1.75;1.15;;;9.90;61.00;;;;;;5094616;28;20073;-73
2022/03/13 09:04:09;;;;;;;1.52;1.10;;;10.00;60.90;;;;;;5095006;28;20067;-71
2022/03/13 09:06:34;;;;;;;2.30;1.10;;;10.00;60.60;;;;;;5094893;28;20066;-72
2022/03/13 09:09:00;;;;;;;2.42;1.38;;;10.10;60.50;;;;;;5111977;28;20063;-71
2022/03/13 09:11:26;;;;;;;2.92;1.55;;;10.20;60.30;;;;;;5095234;28;20405;-71
2022/03/13 09:13:52;;;;;;;2.53;1.33;;;10.20;60.20;;;;;;5094746;28;20089;-72
2022/03/13 09:16:19;;;;;;;2.35;1.20;;;10.30;60.10;;;;;;5077964;28;20040;-72
2022/03/13 09:18:44;;;;;;;2.35;1.50;;;10.40;60.00;;;;;;5112611;28;20040;-72
2022/03/13 09:21:10;;;;;;;2.72;1.42;;;10.40;59.90;;;;;;5112702;28;20481;-71
2022/03/13 09:23:36;;;;;;;2.03;1.25;;;10.50;59.80;;;;;;5112844;28;20042;-72
2022/03/13 09:26:02;;;;;;;2.75;1.27;;;10.50;59.70;;;;;;5077694;28;20128;-71
2022/03/13 09:28:29;;;;;;;1.92;1.20;;;10.60;59.60;;;;;;5078092;28;20169;-73
2022/03/13 09:30:56;;;;;;;2.25;1.10;;;10.70;59.50;;;;;;5113067;28;20040;-73
2022/03/13 09:33:23;;;;;;;2.60;1.40;;;10.90;59.40;;;;;;5077763;28;20489;-72
2022/03/13 09:35:48;;;;;;;2.83;1.10;;;11.10;59.20;;;;;;5112683;28;20039;-73
2022/03/13 09:38:16;;;;;;;2.13;1.40;;;11.40;58.90;;;;;;5113041;28;20086;-73
2022/03/13 09:40:42;;;;;;;2.75;1.40;;;11.60;58.40;;;;;;5095330;28;20071;-74
2022/03/13 09:43:08;;;;;;;2.17;1.20;;;11.70;58.10;;;;;;5113322;28;20065;-74
2022/03/13 09:45:34;;;;;;;2.63;1.17;;;11.90;58.00;;;;;;5097400;28;20040;-76
2022/03/13 09:48:05;;;;;;;2.75;1.40;;;12.00;57.70;;;;;;5079004;28;20546;-75
2022/03/13 09:50:31;;;;;;;;;;;12.10;57.60;;;;;;5062443;28;20047;-74
2022/03/13 09:52:57;;;;;;;2.08;1.27;;;12.20;57.70;;;;;;5094262;28;19908;-74
2022/03/13 09:55:22;;;;;;;3.20;1.15;;;12.20;57.60;;;;;;5094217;28;20036;-74
2022/03/13 09:57:51;;;;;;;2.20;1.30;;;12.20;57.60;;;;;;5112369;28;20036;-73
2022/03/13 10:00:21;;;;;;;3.10;1.30;;;12.30;57.60;;;;;;5077872;28;20039;-75
2022/03/13 10:02:47;;;;;;;2.07;1.30;;;12.30;57.60;;;;;;5077698;28;20747;-73
2022/03/13 10:05:17;;;;;;;2.47;1.58;;;12.40;57.50;;;;;;5077498;28;20489;-74
2022/03/13 10:07:54;;;;;;;2.05;1.10;;;12.50;57.50;;;;;;5094978;28;20069;-73
2022/03/13 10:10:22;;;;;;;2.10;1.10;;;12.60;57.40;;;;;;5112050;28;20039;-74
2022/03/13 10:12:48;;;;;;;1.80;1.13;;;12.60;57.40;;;;;;5077747;28;20051;-73
2022/03/13 10:15:15;;;;;;;1.88;1.30;;;12.80;57.40;;;;;;5077010;28;20043;-73
2022/03/13 10:17:41;;;;;;;2.55;1.35;;;12.80;57.20;;;;;;5076854;28;20481;-72
2022/03/13 10:20:14;;;;;;;2.20;1.38;;;12.80;57.10;;;;;;5095923;28;20044;-71
2022/03/13 10:22:42;;;;;;;1.92;1.20;;;12.90;57.80;;;;;;5064588;28;20028;-72
2022/03/13 10:25:08;;;;;;;2.78;1.33;;;12.90;57.80;;;;;;5116063;28;20039;-72
2022/03/13 10:27:34;;;;;;;2.05;1.30;;;13.00;57.00;;;;;;5080435;28;20093;-71
2022/03/13 10:30:02;;;;;;;2.70;1.40;;;12.90;57.00;;;;;;5115472;28;20476;-71
2022/03/13 10:32:28;;;;;;;2.30;1.20;;;13.00;57.10;;;;;;5095286;28;20044;-72
2022/03/13 10:34:56;;;;;;;1.90;1.40;;;13.00;57.10;;;;;;5115766;28;20122;-72
2022/03/13 10:37:43;;;;;;;2.67;1.58;;;13.00;57.10;;;;;;5096848;28;20481;-72
2022/03/13 10:40:18;;;;;;;2.47;1.55;;;13.00;57.10;;;;;;5096918;28;20044;-72
2022/03/13 10:42:43;;;;;;;2.67;1.40;;;13.10;57.20;;;;;;5095236;28;20538;-71
2022/03/13 10:45:30;;;;;;;2.92;1.50;;;13.30;57.10;;;;;;5096847;28;20035;-72
2022/03/13 10:48:18;;;;;;;1.90;1.40;;;13.40;56.90;;;;;;5114815;28;20468;-72
2022/03/13 10:50:45;;;;;;;1.80;1.10;;;13.60;56.60;;;;;;5095164;28;20044;-72
2022/03/13 10:53:13;;;;;;;2.22;1.20;;;13.70;56.50;;;;;;5115448;28;20084;-72
2022/03/13 10:55:41;;;;;;;2.40;1.40;;;13.80;56.30;;;;;;5096539;28;20507;-72
2022/03/13 10:58:07;;;;;;;2.85;1.58;;;13.90;56.30;;;;;;5115207;28;20077;-72
2022/03/13 11:00:34;;;;;;;3.20;1.70;;;14.00;56.20;;;;;;5080101;28;20074;-73
2022/03/13 11:03:14;;;;;;;2.30;1.30;;;14.20;56.10;;;;;;5114943;28;20044;-73
2022/03/13 11:05:40;;;;;;;2.28;1.30;;;14.40;55.90;;;;;;5096219;28;20100;-73
2022/03/13 11:08:08;;;;;;;2.33;1.35;;;14.50;55.70;;;;;;5079717;28;20039;-74
2022/03/13 11:10:36;;;;;;;1.98;1.35;;;14.70;55.60;;;;;;5115380;28;20460;-72
2022/03/13 11:13:04;;;;;;;2.55;1.33;;;14.90;55.50;;;;;;5094959;28;20043;-74
2022/03/13 11:15:31;;;;;;;1.63;1.15;;;15.10;55.30;;;;;;5095403;28;20497;-73
2022/03/13 11:17:58;;;;;;;2.58;1.58;;;15.20;55.20;;;;;;5080910;28;20493;-72
2022/03/13 11:20:25;;;;;;;2.38;1.50;;;15.30;55.10;;;;;;5096691;28;20107;-71
2022/03/13 11:22:50;;;;;;;3.33;1.65;;;15.40;55.00;;;;;;5114539;28;20476;-72
2022/03/13 11:25:17;;;;;;;2.45;1.50;;;15.50;55.00;;;;;;5114688;28;20059;-74
2022/03/13 11:27:45;;;;;;;2.05;1.30;;;15.50;55.00;;;;;;5079941;28;20116;-74
2022/03/13 11:30:16;;;;;;;3.72;1.73;;;15.60;55.10;;;;;;5079199;28;21330;-72
2022/03/13 11:32:51;;;;;;;2.22;1.48;;;15.70;55.10;;;;;;5096221;28;20051;-72
2022/03/13 11:35:20;;;;;;;2.47;1.40;;;15.70;55.00;;;;;;5093971;28;20039;-72
2022/03/13 11:37:52;;;;;;;2.38;1.40;;;15.80;55.00;;;;;;5114835;28;20032;-72
2022/03/13 11:40:31;;;;;;;2.45;1.50;;;15.80;54.90;;;;;;5114270;28;20040;-72
2022/03/13 11:43:17;;;;;;;2.42;1.33;;;15.80;54.90;;;;;;5079692;28;20040;-72
2022/03/13 11:45:54;;;;;;;2.15;1.40;;;15.90;55.00;;;;;;5113970;28;20066;-73
2022/03/13 11:48:39;;;;;;;1.88;1.25;;;16.10;55.00;;;;;;5095766;28;20047;-72
2022/03/13 11:51:05;;;;;;;2.78;1.42;;;16.20;54.90;;;;;;5098864;28;20044;-73
2022/03/13 11:53:44;;;;;;;2.10;1.33;;;16.30;54.90;;;;;;5114382;28;20043;-72
2022/03/13 11:56:11;;;;;;;1.38;0.98;;;16.40;54.70;;;;;;5114239;28;20516;-72
2022/03/13 11:58:49;;;;;;;2.35;1.27;;;16.40;54.60;;;;;;5113857;28;20039;-73
2022/03/13 12:01:19;;;;;;;1.23;1.13;;;16.50;54.60;;;;;;5113399;28;20073;-72
2022/03/13 12:04:18;;;;;;;2.45;1.50;;;16.60;54.50;;;;;;5113765;28;20104;-71
2022/03/13 12:06:51;;;;;;;3.13;1.55;;;16.70;54.40;;;;;;5081391;28;20042;-74
2022/03/13 12:09:40;;;;;;;2.33;1.50;;;16.70;54.40;;;;;;5113702;28;20556;-74
2022/03/13 12:12:08;;;;;;;2.00;1.10;;;16.70;54.40;;;;;;5114063;28;20046;-74
2022/03/13 12:15:07;;;;;;;3.03;1.63;;;16.80;54.50;;;;;;5114581;28;20172;-73
2022/03/13 12:17:48;;;;;;;2.38;1.50;;;16.80;54.50;;;;;;5095993;28;20042;-74
2022/03/13 12:20:24;;;;;;;1.20;1.05;;;16.90;54.50;;;;;;5080453;28;20427;-73
2022/03/13 12:22:53;;;;;;;3.50;1.42;;;17.00;54.40;;;;;;5114053;28;20092;-74
2022/03/13 12:25:27;;;;;;;2.42;1.38;;;17.10;54.30;;;;;;5095393;28;20126;-73
2022/03/13 12:27:54;;;;;;;2.38;1.50;;;17.20;54.20;;;;;;5113710;28;20048;-70
2022/03/13 12:30:24;;;;;;;2.17;1.35;;;17.30;54.10;;;;;;5062258;28;20035;-74
2022/03/13 12:32:59;;;;;;;2.47;1.50;;;17.30;53.90;;;;;;5097506;28;20489;-74
2022/03/13 12:35:26;;;;;;;1.95;1.00;;;17.40;53.70;;;;;;5096614;28;20061;-74
2022/03/13 12:37:54;;;;;;;1.98;1.10;;;17.60;53.80;;;;;;5095967;28;20047;-74
2022/03/13 12:40:21;;;;;;;3.03;1.42;;;17.70;53.70;;;;;;5098151;28;20051;-73
2022/03/13 12:42:54;;;;;;;1.63;1.00;;;17.70;53.50;;;;;;5077443;28;20036;-74
2022/03/13 12:45:20;;;;;;;1.83;1.17;;;17.90;53.60;;;;;;5081864;28;20081;-74
2022/03/13 12:47:49;;;;;;;1.10;0.90;;;17.80;53.50;;;;;;5079933;28;20038;-72
2022/03/13 12:50:17;;;;;;;1.20;0.90;;;17.80;53.60;;;;;;5079862;28;20039;-75
2022/03/13 12:52:52;;;;;;;2.38;1.20;;;18.00;53.60;;;;;;5062821;28;20493;-74
2022/03/13 12:55:35;;;;;;;1.55;1.10;;;18.00;53.50;;;;;;5078584;28;20393;-79
2022/03/13 12:58:02;;;;;;;2.78;1.52;;;18.10;53.20;;;;;;5023387;28;20037;-71